TAF COR LDZA 191301Z 1912/2012 05010KT 7000 SCT006 OVC030
                     TX13/1912Z TN10/2004Z
               TEMPO 1912/2002 4000 RA BKN006 OVC020
        PROB40 TEMPO 1912/1918 2000 +RA BKN003 OVC015
        PROB30 TEMPO 1912/1918 VRB15KT 2000 +TSRA SCT008 SCT015CB BKN025
               TEMPO 1918/1922 02015G30KT
               TEMPO 2000/2006 VRB02KT=
TAF LDZA 191125Z 1912/2012 05010KT 6000 -RA SCT006 OVC030
                 TX13/1912Z TN10/2004Z
           TEMPO 1912/2002 4000 RA BKN006 OVC020
    PROB40 TEMPO 1912/1918 2000 +RA BKN003 OVC015
    PROB30 TEMPO 1912/1918 VRB15KT 2000 +TSRA SCT008 SCT015CB BKN025
           TEMPO 1918/1922 02015G30KT
           TEMPO 2000/2006 VRB02KT=
TAF LDZA 190525Z 1906/2006 05010KT 6000 -RA SCT010 OVC030
                 TX15/1910Z TN10/2004Z
           TEMPO 1906/2002 4000 RA BKN008 OVC020
    PROB40 TEMPO 1909/1918 2000 +RA BKN003 OVC015
    PROB30 TEMPO 1909/1916 VRB15KT 2000 +TSRA SCT008 SCT015CB BKN025
           TEMPO 1918/1922 02015G30KT
           TEMPO 2000/2006 VRB02KT=
TAF LDZA 182325Z 1900/2000 VRB02KT 6000 -RA SCT010 OVC020
                 TX14/1900Z TN10/1923Z
           TEMPO 1906/2000 4000 RA BKN008 OVC020
           BECMG 1906/1908 07012KT
    PROB40 TEMPO 1910/1916 2000 +RA BKN005 OVC015
    PROB30 TEMPO 1910/1916 VRB20G30KT 2000 +TSRA SCT008 SCT015CB BKN025=
TAF LDZA 181725Z 1818/1918 04005KT 9999 FEW015 SCT040
                 TX15/1818Z TN10/1904Z
           TEMPO 1823/1918 4000 RA BR BKN008 OVC020
    PROB30 TEMPO 1823/1908 4000 TSRA SCT010 FEW025CB BKN030
           BECMG 1901/1903 05008KT
    PROB40 TEMPO 1908/1916 VRB20KT 2000 +TSRA SCT008 SCT020CB BKN025=
TAF LDZA 181125Z 1812/1912 04005KT 9999 FEW015 SCT040
                 TX20/1813Z TN10/1904Z
    PROB40 TEMPO 1813/1820 SHRA FEW030TCU SCT040
    PROB30 TEMPO 1823/1907 4000 TSRA SCT010 FEW025CB BKN030
           TEMPO 1900/1912 3000 RA BR BKN008 OVC020
           BECMG 1904/1906 05008KT
    PROB40 TEMPO 1909/1912 VRB20KT 2000 TSRA SCT008 SCT020CB BKN025=
TAF AMD LDZA 180543Z 1806/1906 VRB02KT 3000 BCFG BKN003
                     TX19/1812Z TN11/1806Z
               TEMPO 1806/1807 0500 FG
               BECMG 1807/1809 8000 NSW NSC
        PROB40 TEMPO 1813/1820 SHRA FEW030TCU SCT040
        PROB30 TEMPO 1902/1906 RA BKN014
        PROB30 TEMPO 1904/1906 06007KT=
TAF LDZA 180525Z 1806/1906 VRB02KT 3000 BR BKN003
                 TX19/1812Z TN11/1806Z
           BECMG 1806/1808 CAVOK
    PROB40 TEMPO 1813/1820 SHRA FEW030TCU SCT040
    PROB30 TEMPO 1902/1906 RA BKN014
    PROB30 TEMPO 1904/1906 06007KT=
TAF AMD LDZA 180259Z 1803/1900 VRB02KT 3000 BCFG NSC
                     TX21/1812Z TN08/1804Z
              PROB40 1803/1807 0200 FG VV001
               BECMG 1807/1809 CAVOK
        PROB30 TEMPO 1814/1900 23015KT TSRA FEW025CB BKN030=